createdAt,value
2019-03-03T00:00:46.712Z,83.49
2019-03-03T00:01:46.661Z,83.39
2019-03-03T00:02:46.667Z,83.39
2019-03-03T00:03:46.636Z,82.56
2019-03-03T00:04:46.630Z,83.28
2019-03-03T00:05:46.615Z,83.32
2019-03-03T00:06:46.624Z,83.12
2019-03-03T00:07:46.600Z,83.39
2019-03-03T00:08:46.579Z,83.32
2019-03-03T00:09:46.577Z,83.73
2019-03-03T00:10:46.554Z,83.53
2019-03-03T00:11:46.574Z,83.42
2019-03-03T00:12:46.551Z,83.32
2019-03-03T00:13:46.531Z,83.53
2019-03-03T00:14:46.515Z,83.73
2019-03-03T00:15:46.505Z,83.28
2019-03-03T00:16:46.490Z,83.07
2019-03-03T00:17:46.509Z,82.77
2019-03-03T00:18:47.380Z,82.67
2019-03-03T00:19:46.459Z,82.87
2019-03-03T00:20:46.469Z,82.15
2019-03-03T00:21:46.482Z,82.56
2019-03-03T00:22:46.456Z,82.46
2019-03-03T00:23:46.435Z,82.46
2019-03-03T00:24:46.404Z,82.50
2019-03-03T00:25:46.390Z,82.46
2019-03-03T00:26:46.399Z,82.36
2019-03-03T00:27:46.377Z,81.95
2019-03-03T00:28:46.392Z,82.05
2019-03-03T00:29:46.353Z,82.67
2019-03-03T00:30:46.341Z,82.46
2019-03-03T00:31:46.335Z,82.26
2019-03-03T00:32:46.309Z,81.23
2019-03-03T00:33:46.302Z,81.23
2019-03-03T00:34:46.348Z,81.43
2019-03-03T00:35:46.288Z,81.54
2019-03-03T00:36:46.270Z,81.50
2019-03-03T00:37:46.385Z,81.20
2019-03-03T00:38:46.265Z,81.54
2019-03-03T00:39:46.241Z,81.34
2019-03-03T00:40:46.270Z,81.40
2019-03-03T00:41:46.219Z,80.92
2019-03-03T00:42:46.205Z,81.02
2019-03-03T00:43:46.204Z,81.02
2019-03-03T00:44:46.190Z,81.23
2019-03-03T00:45:46.200Z,81.13
2019-03-03T00:46:46.182Z,81.23
2019-03-03T00:47:46.184Z,80.92
2019-03-03T00:48:46.171Z,81.34
2019-03-03T00:49:46.143Z,81.13
2019-03-03T00:50:46.149Z,81.13
2019-03-03T00:51:46.102Z,80.72
2019-03-03T00:52:46.096Z,80.82
2019-03-03T00:53:46.131Z,80.62
2019-03-03T00:54:46.090Z,80.82
2019-03-03T00:55:46.064Z,80.62
2019-03-03T00:56:46.099Z,80.82
2019-03-03T00:57:46.040Z,80.82
2019-03-03T00:58:46.183Z,80.92
2019-03-03T00:59:46.017Z,80.86
2019-03-03T01:00:46.008Z,80.92
2019-03-03T01:01:46.146Z,80.82
2019-03-03T01:02:46.001Z,80.72
2019-03-03T01:03:45.995Z,80.62
2019-03-03T01:04:45.993Z,80.41
2019-03-03T01:05:45.950Z,80.31
2019-03-03T01:06:45.941Z,81.02
2019-03-03T01:07:45.923Z,80.31
2019-03-03T01:08:45.928Z,79.80
2019-03-03T01:09:45.912Z,80.31
2019-03-03T01:10:45.933Z,80.21
2019-03-03T01:11:45.886Z,80.31
2019-03-03T01:12:45.875Z,80.21
2019-03-03T01:13:45.867Z,80.21
2019-03-03T01:14:45.898Z,80.47
2019-03-03T01:15:45.840Z,80.27
2019-03-03T01:16:45.827Z,80.21
2019-03-03T01:17:45.963Z,80.27
2019-03-03T01:18:45.804Z,80.51
2019-03-03T01:19:45.841Z,79.69
2019-03-03T01:20:45.809Z,80.27
2019-03-03T01:21:45.784Z,80.37
2019-03-03T01:22:45.770Z,79.86
2019-03-03T01:23:45.756Z,79.86
2019-03-03T01:24:45.749Z,79.96
2019-03-03T01:25:45.766Z,79.66
2019-03-03T01:26:45.750Z,80.10
2019-03-03T01:27:45.706Z,80.31
2019-03-03T01:28:45.697Z,80.41
2019-03-03T01:29:45.689Z,80.10
2019-03-03T01:30:45.698Z,80.31
2019-03-03T01:31:45.687Z,80.27
2019-03-03T01:32:45.702Z,79.45
2019-03-03T01:33:45.649Z,80.68
2019-03-03T01:34:45.638Z,79.45
2019-03-03T01:35:45.631Z,79.66
2019-03-03T01:36:45.613Z,79.14
2019-03-03T01:37:45.625Z,79.45
2019-03-03T01:38:45.590Z,79.24
2019-03-03T01:39:45.584Z,79.55
2019-03-03T01:40:45.567Z,79.14
2019-03-03T01:41:45.591Z,79.35
2019-03-03T01:42:45.544Z,79.45
2019-03-03T01:43:45.559Z,79.14
2019-03-03T01:44:45.537Z,79.14
2019-03-03T01:45:45.521Z,78.94
2019-03-03T01:46:45.503Z,78.53
2019-03-03T01:47:45.505Z,78.83
2019-03-03T01:48:45.505Z,79.04
2019-03-03T01:49:45.471Z,78.74
2019-03-03T01:50:45.465Z,78.94
2019-03-03T01:51:45.455Z,78.83
2019-03-03T01:52:45.433Z,78.74
2019-03-03T01:53:45.445Z,78.80
2019-03-03T01:54:45.412Z,78.49
2019-03-03T01:55:45.403Z,78.53
2019-03-03T01:56:45.394Z,78.39
2019-03-03T01:57:45.380Z,78.39
2019-03-03T01:58:45.396Z,78.19
2019-03-03T01:59:45.361Z,77.57
2019-03-03T02:00:45.444Z,77.47
2019-03-03T02:01:45.390Z,77.77
2019-03-03T02:02:45.321Z,78.19
2019-03-03T02:03:45.395Z,78.70
2019-03-03T02:04:45.310Z,79.11
2019-03-03T02:05:45.291Z,78.49
2019-03-03T02:06:45.305Z,78.19
2019-03-03T02:07:45.269Z,78.39
2019-03-03T02:08:45.263Z,78.80
2019-03-03T02:09:45.254Z,78.19
2019-03-03T02:10:45.281Z,78.28
2019-03-03T02:11:45.229Z,77.98
2019-03-03T02:12:45.254Z,77.77
2019-03-03T02:13:45.218Z,77.98
2019-03-03T02:14:45.227Z,77.87
2019-03-03T02:15:45.184Z,78.19
2019-03-03T02:16:45.169Z,77.87
2019-03-03T02:17:45.213Z,77.98
2019-03-03T02:18:45.161Z,77.47
2019-03-03T02:19:45.144Z,77.87
2019-03-03T02:20:45.141Z,78.19
2019-03-03T02:21:45.122Z,77.87
2019-03-03T02:22:45.109Z,77.47
2019-03-03T02:23:45.126Z,77.87
2019-03-03T02:24:45.086Z,77.98
2019-03-03T02:25:45.074Z,77.36
2019-03-03T02:26:45.072Z,77.87
2019-03-03T02:27:45.906Z,77.77
2019-03-03T02:28:45.072Z,77.16
2019-03-03T02:29:45.032Z,77.77
2019-03-03T02:30:45.043Z,77.77
2019-03-03T02:31:45.041Z,77.47
2019-03-03T02:32:44.997Z,77.57
2019-03-03T02:33:45.000Z,77.87
2019-03-03T02:34:45.002Z,78.08
2019-03-03T02:35:44.975Z,78.19
2019-03-03T02:36:44.952Z,77.87
2019-03-03T02:37:44.949Z,77.67
2019-03-03T02:38:44.939Z,77.98
2019-03-03T02:39:44.927Z,77.98
2019-03-03T02:40:44.935Z,78.08
2019-03-03T02:41:44.931Z,78.08
2019-03-03T02:42:44.888Z,78.08
2019-03-03T02:43:44.897Z,77.57
2019-03-03T02:44:44.930Z,77.57
2019-03-03T02:45:44.864Z,77.33
2019-03-03T02:46:44.870Z,77.57
2019-03-03T02:47:44.827Z,77.57
2019-03-03T02:48:44.823Z,77.87
2019-03-03T02:49:44.823Z,77.57
2019-03-03T02:50:44.804Z,78.28
2019-03-03T02:51:44.810Z,78.08
2019-03-03T02:52:44.777Z,77.98
2019-03-03T02:53:44.770Z,79.11
2019-03-03T02:54:44.753Z,78.39
2019-03-03T02:55:44.744Z,78.39
2019-03-03T02:56:44.769Z,78.39
2019-03-03T02:57:44.722Z,78.59
2019-03-03T02:58:44.747Z,79.00
2019-03-03T02:59:44.698Z,78.49
2019-03-03T03:00:44.689Z,78.49
2019-03-03T03:01:44.681Z,78.39
2019-03-03T03:02:44.709Z,78.70
2019-03-03T03:03:44.664Z,78.59
2019-03-03T03:04:44.651Z,79.00
2019-03-03T03:05:44.631Z,78.80
2019-03-03T03:06:44.627Z,78.70
2019-03-03T03:07:44.614Z,79.00
2019-03-03T03:08:44.636Z,78.39
2019-03-03T03:09:44.601Z,78.19
2019-03-03T03:10:44.616Z,78.28
2019-03-03T03:11:44.573Z,78.70
2019-03-03T03:12:44.573Z,77.98
2019-03-03T03:13:44.549Z,77.94
2019-03-03T03:14:44.566Z,78.39
2019-03-03T03:15:44.534Z,78.28
2019-03-03T03:16:44.522Z,78.28
2019-03-03T03:17:44.506Z,78.19
2019-03-03T03:18:44.515Z,78.19
2019-03-03T03:19:44.491Z,78.19
2019-03-03T03:20:44.492Z,78.49
2019-03-03T03:21:44.471Z,78.39
2019-03-03T03:22:44.461Z,78.39
2019-03-03T03:23:44.442Z,78.49
2019-03-03T03:24:44.449Z,78.70
2019-03-03T03:25:44.448Z,78.28
2019-03-03T03:26:44.453Z,78.70
2019-03-03T03:27:44.398Z,78.90
2019-03-03T03:28:44.383Z,79.21
2019-03-03T03:29:44.369Z,79.21
2019-03-03T03:30:44.382Z,78.80
2019-03-03T03:31:44.358Z,79.41
2019-03-03T03:32:44.413Z,78.49
2019-03-03T03:33:44.331Z,78.80
2019-03-03T03:34:44.321Z,79.00
2019-03-03T03:35:44.328Z,78.49
2019-03-03T03:36:44.299Z,78.70
2019-03-03T03:37:44.303Z,78.59
2019-03-03T03:38:44.270Z,78.90
2019-03-03T03:39:44.265Z,78.80
2019-03-03T03:40:44.251Z,79.11
2019-03-03T03:41:44.245Z,79.00
2019-03-03T03:42:44.313Z,78.70
2019-03-03T03:43:44.246Z,79.21
2019-03-03T03:44:44.207Z,79.11
2019-03-03T03:45:44.204Z,79.00
2019-03-03T03:46:44.194Z,78.80
2019-03-03T03:47:44.205Z,78.90
2019-03-03T03:48:44.172Z,78.80
2019-03-03T03:49:44.183Z,78.70
2019-03-03T03:50:44.213Z,79.21
2019-03-03T03:51:44.137Z,78.70
2019-03-03T03:52:44.125Z,79.00
2019-03-03T03:53:44.163Z,79.11
2019-03-03T03:54:44.096Z,79.00
2019-03-03T03:55:44.098Z,79.41
2019-03-03T03:56:44.113Z,80.33
2019-03-03T03:57:44.066Z,80.44
2019-03-03T03:58:44.053Z,80.23
2019-03-03T03:59:44.038Z,80.03
2019-03-03T04:00:44.076Z,80.23
2019-03-03T04:01:44.048Z,79.72
2019-03-03T04:02:44.012Z,80.23
2019-03-03T04:03:44.005Z,80.23
2019-03-03T04:04:43.989Z,80.13
2019-03-03T04:05:43.982Z,80.23
2019-03-03T04:06:44.083Z,80.64
2019-03-03T04:07:43.956Z,80.95
2019-03-03T04:08:43.957Z,80.33
2019-03-03T04:09:43.942Z,80.64
2019-03-03T04:10:43.941Z,80.54
2019-03-03T04:11:43.932Z,80.23
2019-03-03T04:12:43.898Z,79.93
2019-03-03T04:13:43.895Z,80.44
2019-03-03T04:14:43.879Z,80.54
2019-03-03T04:15:43.865Z,80.54
2019-03-03T04:16:43.884Z,80.54
2019-03-03T04:17:43.850Z,80.23
2019-03-03T04:18:43.837Z,80.74
2019-03-03T04:19:43.818Z,80.44
2019-03-03T04:20:43.819Z,80.85
2019-03-03T04:21:43.799Z,80.85
2019-03-03T04:22:43.848Z,80.88
2019-03-03T04:23:43.780Z,80.74
2019-03-03T04:24:43.786Z,80.58
2019-03-03T04:25:43.804Z,80.64
2019-03-03T04:26:43.751Z,80.85
2019-03-03T04:27:43.760Z,80.74
2019-03-03T04:28:43.723Z,80.44
2019-03-03T04:29:43.724Z,80.33
2019-03-03T04:30:43.698Z,80.44
2019-03-03T04:31:43.692Z,80.64
2019-03-03T04:32:43.678Z,80.33
2019-03-03T04:33:43.710Z,80.64
2019-03-03T04:34:43.658Z,80.78
2019-03-03T04:35:43.643Z,81.05
2019-03-03T04:36:43.634Z,81.26
2019-03-03T04:37:43.621Z,81.05
2019-03-03T04:38:44.427Z,81.05
2019-03-03T04:39:43.623Z,80.54
2019-03-03T04:40:43.599Z,81.46
2019-03-03T04:41:43.584Z,81.67
2019-03-03T04:42:43.569Z,81.36
2019-03-03T04:43:43.557Z,82.01
2019-03-03T04:44:43.567Z,82.49
2019-03-03T04:45:43.535Z,82.01
2019-03-03T04:46:43.613Z,82.53
2019-03-03T04:47:43.516Z,82.63
2019-03-03T04:48:43.506Z,82.42
2019-03-03T04:49:43.516Z,83.04
2019-03-03T04:50:43.498Z,83.14
2019-03-03T04:51:43.468Z,83.04
2019-03-03T04:52:43.467Z,83.25
2019-03-03T04:53:43.480Z,83.45
2019-03-03T04:54:43.438Z,83.25
2019-03-03T04:55:43.425Z,83.25
2019-03-03T04:56:43.433Z,82.83
2019-03-03T04:57:43.406Z,82.87
2019-03-03T04:58:43.395Z,82.53
2019-03-03T04:59:43.409Z,82.97
2019-03-03T05:00:43.372Z,82.77
2019-03-03T05:01:43.385Z,82.87
2019-03-03T05:02:43.468Z,82.97
2019-03-03T05:03:43.388Z,82.56
2019-03-03T05:04:43.326Z,83.28
2019-03-03T05:05:43.327Z,83.07
2019-03-03T05:06:43.310Z,82.97
2019-03-03T05:07:43.325Z,83.34
2019-03-03T05:08:43.281Z,83.25
2019-03-03T05:09:43.273Z,82.83
2019-03-03T05:10:43.259Z,82.83
2019-03-03T05:11:43.248Z,82.73
2019-03-03T05:12:43.241Z,82.73
2019-03-03T05:13:43.249Z,82.32
2019-03-03T05:14:43.221Z,82.42
2019-03-03T05:15:43.210Z,82.01
2019-03-03T05:16:43.193Z,82.12
2019-03-03T05:17:43.184Z,82.42
2019-03-03T05:18:43.319Z,82.42
2019-03-03T05:19:43.190Z,82.53
2019-03-03T05:20:43.153Z,82.42
2019-03-03T05:21:43.139Z,82.63
2019-03-03T05:22:43.143Z,82.32
2019-03-03T05:23:43.119Z,82.63
2019-03-03T05:24:43.132Z,82.42
2019-03-03T05:25:43.090Z,82.63
2019-03-03T05:26:43.086Z,82.73
2019-03-03T05:27:43.077Z,83.14
2019-03-03T05:28:43.062Z,83.25
2019-03-03T05:29:43.051Z,82.63
2019-03-03T05:30:43.060Z,83.14
2019-03-03T05:31:43.024Z,83.04
2019-03-03T05:32:43.022Z,83.14
2019-03-03T05:33:43.006Z,83.34
2019-03-03T05:34:42.993Z,83.55
2019-03-03T05:35:52.051Z,83.14
2019-03-03T05:36:43.003Z,83.14
2019-03-03T05:37:42.962Z,82.93
2019-03-03T05:38:42.951Z,83.04
2019-03-03T05:39:42.942Z,82.39
2019-03-03T05:40:42.930Z,82.63
2019-03-03T05:41:42.988Z,82.63
2019-03-03T05:42:42.958Z,82.42
2019-03-03T05:43:42.896Z,82.63
2019-03-03T05:44:42.880Z,82.93
2019-03-03T05:45:42.890Z,83.04
2019-03-03T05:46:42.893Z,82.42
2019-03-03T05:47:42.851Z,81.91
2019-03-03T05:48:42.843Z,82.28
2019-03-03T05:49:42.832Z,82.53
2019-03-03T05:50:42.820Z,82.63
2019-03-03T05:51:42.806Z,82.69
2019-03-03T05:52:42.819Z,82.08
2019-03-03T05:53:42.788Z,81.46
2019-03-03T05:54:42.773Z,81.05
2019-03-03T05:55:42.765Z,81.46
2019-03-03T05:56:42.756Z,81.98
2019-03-03T05:57:42.776Z,81.05
2019-03-03T05:58:42.848Z,81.26
2019-03-03T05:59:42.723Z,81.05
2019-03-03T06:00:42.708Z,81.15
2019-03-03T06:01:42.698Z,80.81
2019-03-03T06:02:42.688Z,80.91
2019-03-03T06:03:42.698Z,80.51
2019-03-03T06:04:42.674Z,80.51
2019-03-03T06:05:42.649Z,80.85
2019-03-03T06:06:42.667Z,80.74
2019-03-03T06:07:42.631Z,81.26
2019-03-03T06:08:42.635Z,81.01
2019-03-03T06:09:42.639Z,80.60
2019-03-03T06:10:42.597Z,80.51
2019-03-03T06:11:42.591Z,80.40
2019-03-03T06:12:42.576Z,80.91
2019-03-03T06:13:42.569Z,80.40
2019-03-03T06:14:42.558Z,80.71
2019-03-03T06:15:42.561Z,80.51
2019-03-03T06:16:42.554Z,80.81
2019-03-03T06:17:42.552Z,81.12
2019-03-03T06:18:42.509Z,81.01
2019-03-03T06:19:42.496Z,81.12
2019-03-03T06:20:42.499Z,81.01
2019-03-03T06:21:42.475Z,81.01
2019-03-03T06:22:42.590Z,82.08
2019-03-03T06:23:42.473Z,82.24
2019-03-03T06:24:42.445Z,82.69
2019-03-03T06:25:42.993Z,82.59
2019-03-03T06:26:42.429Z,83.41
2019-03-03T06:27:42.408Z,83.31
2019-03-03T06:28:42.430Z,84.27
2019-03-03T06:29:42.398Z,84.03
2019-03-03T06:30:42.393Z,83.65
2019-03-03T06:31:42.365Z,84.17
2019-03-03T06:32:42.387Z,84.06
2019-03-03T06:33:42.345Z,84.27
2019-03-03T06:34:42.374Z,83.96
2019-03-03T06:35:42.323Z,84.47
2019-03-03T06:36:42.311Z,84.58
2019-03-03T06:37:42.298Z,84.47
2019-03-03T06:38:42.288Z,84.37
2019-03-03T06:39:42.276Z,83.45
2019-03-03T06:40:42.289Z,84.58
2019-03-03T06:41:42.320Z,84.33
2019-03-03T06:42:42.244Z,83.34
2019-03-03T06:43:42.237Z,83.20
2019-03-03T06:44:42.386Z,83.55
2019-03-03T06:45:42.219Z,83.34
2019-03-03T06:46:42.208Z,83.31
2019-03-03T06:47:42.203Z,82.90
2019-03-03T06:48:42.188Z,82.90
2019-03-03T06:49:42.176Z,83.00
2019-03-03T06:50:42.181Z,83.00
2019-03-03T06:51:42.144Z,82.90
2019-03-03T06:52:42.137Z,82.59
2019-03-03T06:53:42.127Z,82.28
2019-03-03T06:54:42.110Z,82.39
2019-03-03T06:55:42.103Z,82.39
2019-03-03T06:56:42.117Z,82.59
2019-03-03T06:57:42.115Z,82.79
2019-03-03T06:58:42.064Z,82.28
2019-03-03T06:59:42.059Z,82.24
2019-03-03T07:00:42.063Z,81.84
2019-03-03T07:01:42.034Z,82.14
2019-03-03T07:02:42.050Z,81.84
2019-03-03T07:03:42.020Z,81.98
2019-03-03T07:04:42.003Z,82.35
2019-03-03T07:05:42.017Z,82.24
2019-03-03T07:06:42.033Z,81.73
2019-03-03T07:07:41.977Z,82.04
2019-03-03T07:08:42.498Z,81.94
2019-03-03T07:09:41.957Z,82.24
2019-03-03T07:10:41.938Z,82.14
2019-03-03T07:11:41.930Z,82.24
2019-03-03T07:12:41.941Z,81.63
2019-03-03T07:13:41.902Z,81.94
2019-03-03T07:14:41.896Z,82.14
2019-03-03T07:15:41.890Z,81.63
2019-03-03T07:16:41.871Z,81.94
2019-03-03T07:17:41.863Z,82.45
2019-03-03T07:18:41.882Z,82.24
2019-03-03T07:19:41.838Z,81.73
2019-03-03T07:20:41.838Z,81.73
2019-03-03T07:21:41.818Z,81.43
2019-03-03T07:22:41.873Z,81.32
2019-03-03T07:23:41.806Z,81.08
2019-03-03T07:24:41.983Z,81.52
2019-03-03T07:25:41.803Z,81.43
2019-03-03T07:26:41.763Z,81.52
2019-03-03T07:27:41.831Z,81.38
2019-03-03T07:28:41.741Z,81.01
2019-03-03T07:29:41.744Z,81.32
2019-03-03T07:30:41.767Z,81.52
2019-03-03T07:31:41.712Z,81.52
2019-03-03T07:32:41.694Z,81.52
2019-03-03T07:33:41.687Z,81.94
2019-03-03T07:34:41.670Z,81.90
2019-03-03T07:35:41.678Z,82.45
2019-03-03T07:36:41.671Z,82.35
2019-03-03T07:37:41.639Z,82.35
2019-03-03T07:38:41.630Z,82.35
2019-03-03T07:39:41.613Z,81.49
2019-03-03T07:40:41.762Z,82.35
2019-03-03T07:41:41.643Z,82.35
2019-03-03T07:42:41.594Z,82.04
2019-03-03T07:43:41.631Z,82.35
2019-03-03T07:44:41.564Z,82.14
2019-03-03T07:45:41.549Z,82.35
2019-03-03T07:46:41.561Z,82.45
2019-03-03T07:47:41.540Z,82.55
2019-03-03T07:48:41.555Z,82.31
2019-03-03T07:49:41.508Z,81.90
2019-03-03T07:50:41.500Z,82.31
2019-03-03T07:51:41.530Z,81.79
2019-03-03T07:52:41.515Z,82.00
2019-03-03T07:53:41.466Z,81.59
2019-03-03T07:54:41.450Z,81.79
2019-03-03T07:55:41.449Z,82.10
2019-03-03T07:56:41.428Z,82.31
2019-03-03T07:57:41.458Z,82.00
2019-03-03T07:58:41.407Z,81.79
2019-03-03T07:59:41.405Z,82.10
2019-03-03T08:00:41.409Z,81.90
2019-03-03T08:01:41.384Z,82.51
2019-03-03T08:02:41.368Z,82.31
2019-03-03T08:03:41.384Z,82.00
2019-03-03T08:04:42.009Z,82.62
2019-03-03T08:05:41.345Z,82.00
2019-03-03T08:06:41.327Z,82.21
2019-03-03T08:07:41.341Z,82.41
2019-03-03T08:08:41.301Z,82.62
2019-03-03T08:09:41.319Z,82.31
2019-03-03T08:10:41.280Z,82.71
2019-03-03T08:11:41.268Z,82.92
2019-03-03T08:12:41.258Z,83.23
2019-03-03T08:13:41.249Z,83.23
2019-03-03T08:14:41.259Z,83.33
2019-03-03T08:15:41.249Z,84.87
2019-03-03T08:16:41.207Z,85.42
2019-03-03T08:17:41.204Z,86.14
2019-03-03T08:18:41.192Z,86.81
2019-03-03T08:19:41.208Z,87.88
2019-03-03T08:20:41.213Z,87.77
2019-03-03T08:21:41.163Z,88.29
2019-03-03T08:22:41.183Z,88.80
2019-03-03T08:23:41.184Z,88.70
2019-03-03T08:24:41.126Z,89.25
2019-03-03T08:25:41.134Z,88.84
2019-03-03T08:26:41.105Z,89.45
2019-03-03T08:27:41.096Z,89.15
2019-03-03T08:28:41.080Z,88.94
2019-03-03T08:29:41.075Z,89.56
2019-03-03T08:30:41.056Z,89.56
2019-03-03T08:31:41.067Z,89.45
2019-03-03T08:32:41.073Z,89.31
2019-03-03T08:33:41.032Z,89.45
2019-03-03T08:34:41.016Z,89.15
2019-03-03T08:35:41.014Z,89.04
2019-03-03T08:36:40.995Z,89.15
2019-03-03T08:37:41.008Z,89.45
2019-03-03T08:38:41.006Z,89.04
2019-03-03T08:39:40.957Z,90.17
2019-03-03T08:40:40.960Z,89.66
2019-03-03T08:41:40.937Z,90.48
2019-03-03T08:42:40.926Z,90.32
2019-03-03T08:43:40.915Z,91.09
2019-03-03T08:44:41.050Z,90.79
2019-03-03T08:45:40.892Z,91.30
2019-03-03T08:46:40.889Z,92.12
2019-03-03T08:47:40.875Z,92.02
2019-03-03T08:48:41.051Z,92.43
2019-03-03T08:49:40.858Z,92.83
2019-03-03T08:50:40.889Z,92.98
2019-03-03T08:51:40.824Z,93.29
2019-03-03T08:52:40.814Z,93.29
2019-03-03T08:53:40.809Z,93.25
2019-03-03T08:54:40.815Z,93.29
2019-03-03T08:55:40.789Z,94.21
2019-03-03T08:56:40.797Z,93.60
2019-03-03T08:57:40.766Z,94.01
2019-03-03T08:58:40.748Z,94.52
2019-03-03T08:59:40.737Z,94.73
2019-03-03T09:00:40.771Z,94.42
2019-03-03T09:01:40.744Z,94.21
2019-03-03T09:02:40.712Z,94.73
2019-03-03T09:03:40.730Z,94.93
2019-03-03T09:04:40.683Z,94.73
2019-03-03T09:05:40.679Z,94.52
2019-03-03T09:06:40.690Z,94.62
2019-03-03T09:07:40.683Z,94.62
2019-03-03T09:08:40.647Z,94.73
2019-03-03T09:09:40.630Z,94.77
2019-03-03T09:10:40.618Z,94.83
2019-03-03T09:11:40.619Z,95.24
2019-03-03T09:12:40.614Z,95.34
2019-03-03T09:13:40.582Z,95.34
2019-03-03T09:14:40.577Z,95.86
2019-03-03T09:15:40.556Z,95.44
2019-03-03T09:16:40.583Z,95.44
2019-03-03T09:17:40.541Z,94.42
2019-03-03T09:18:40.522Z,94.83
2019-03-03T09:19:40.513Z,95.65
2019-03-03T09:20:40.502Z,95.03
2019-03-03T09:21:40.491Z,94.62
2019-03-03T09:22:40.502Z,94.73
2019-03-03T09:23:40.468Z,93.90
2019-03-03T09:24:40.460Z,94.32
2019-03-03T09:25:40.449Z,94.73
2019-03-03T09:26:40.439Z,93.90
2019-03-03T09:27:40.569Z,94.07
2019-03-03T09:28:40.422Z,93.35
2019-03-03T09:29:40.403Z,93.86
2019-03-03T09:30:40.396Z,93.45
2019-03-03T09:31:40.384Z,94.17
2019-03-03T09:32:40.396Z,93.45
2019-03-03T09:33:40.365Z,93.45
2019-03-03T09:34:40.357Z,94.17
2019-03-03T09:35:40.340Z,93.76
2019-03-03T09:36:40.337Z,93.66
2019-03-03T09:37:40.316Z,94.07
2019-03-03T09:38:40.331Z,93.86
2019-03-03T09:39:40.292Z,93.66
2019-03-03T09:40:40.321Z,93.66
2019-03-03T09:41:40.271Z,93.35
2019-03-03T09:42:40.264Z,93.45
2019-03-03T09:43:41.036Z,93.96
2019-03-03T09:44:40.241Z,94.07
2019-03-03T09:45:40.232Z,93.86
2019-03-03T09:46:40.645Z,94.17
2019-03-03T09:47:40.209Z,94.37
2019-03-03T09:48:40.198Z,93.76
2019-03-03T09:49:40.205Z,93.96
2019-03-03T09:50:40.208Z,94.48
2019-03-03T09:51:40.189Z,94.78
2019-03-03T09:52:40.160Z,94.64
2019-03-03T09:53:40.149Z,94.12
2019-03-03T09:54:40.132Z,93.55
2019-03-03T09:55:40.122Z,94.37
2019-03-03T09:56:40.129Z,94.48
2019-03-03T09:57:40.101Z,94.54
2019-03-03T09:58:40.092Z,93.35
2019-03-03T09:59:40.079Z,93.62
2019-03-03T10:00:40.065Z,94.07
2019-03-03T10:01:40.059Z,94.68
2019-03-03T10:02:41.034Z,94.48
2019-03-03T10:03:40.028Z,94.74
2019-03-03T10:04:40.021Z,93.92
2019-03-03T10:05:40.014Z,94.27
2019-03-03T10:06:39.995Z,94.64
2019-03-03T10:07:39.990Z,94.68
2019-03-03T10:08:40.003Z,94.33
2019-03-03T10:09:39.968Z,94.68
2019-03-03T10:10:40.128Z,93.62
2019-03-03T10:11:39.944Z,94.43
2019-03-03T10:12:39.940Z,94.64
2019-03-03T10:13:39.924Z,93.92
2019-03-03T10:14:39.949Z,93.92
2019-03-03T10:15:39.891Z,93.66
2019-03-03T10:16:39.888Z,94.74
2019-03-03T10:17:39.878Z,93.82
2019-03-03T10:18:39.864Z,94.33
2019-03-03T10:19:39.863Z,94.33
2019-03-03T10:20:39.881Z,94.23
2019-03-03T10:21:39.859Z,94.74
2019-03-03T10:22:39.817Z,94.74
2019-03-03T10:23:39.823Z,94.33
2019-03-03T10:24:39.799Z,93.92
2019-03-03T10:25:39.832Z,94.54
2019-03-03T10:26:39.870Z,94.23
2019-03-03T10:27:39.768Z,94.74
2019-03-03T10:28:39.791Z,94.33
2019-03-03T10:29:39.751Z,93.62
2019-03-03T10:30:39.729Z,94.64
2019-03-03T10:31:39.743Z,94.17
2019-03-03T10:32:39.714Z,94.64
2019-03-03T10:33:39.700Z,95.15
2019-03-03T10:34:39.693Z,94.54
2019-03-03T10:35:39.676Z,94.43
2019-03-03T10:36:39.666Z,94.64
2019-03-03T10:37:39.679Z,94.33
2019-03-03T10:38:39.677Z,94.74
2019-03-03T10:39:39.641Z,94.54
2019-03-03T10:40:39.626Z,94.74
2019-03-03T10:41:39.613Z,94.84
2019-03-03T10:42:39.680Z,94.54
2019-03-03T10:43:39.615Z,94.64
2019-03-03T10:44:39.601Z,94.54
2019-03-03T10:45:39.603Z,94.43
2019-03-03T10:46:39.555Z,94.02
2019-03-03T10:47:39.540Z,94.02
2019-03-03T10:48:39.529Z,93.88
2019-03-03T10:49:39.550Z,94.43
2019-03-03T10:50:39.529Z,94.64
2019-03-03T10:51:39.504Z,94.54
2019-03-03T10:52:39.494Z,94.12
2019-03-03T10:53:39.537Z,93.71
2019-03-03T10:54:39.467Z,93.71
2019-03-03T10:55:39.488Z,94.33
2019-03-03T10:56:39.446Z,93.82
2019-03-03T10:57:39.432Z,93.57
2019-03-03T10:58:39.460Z,93.77
2019-03-03T10:59:39.411Z,93.77
2019-03-03T11:00:39.426Z,93.67
2019-03-03T11:01:39.395Z,93.67
2019-03-03T11:02:39.389Z,94.08
2019-03-03T11:03:39.408Z,94.08
2019-03-03T11:04:39.379Z,93.57
2019-03-03T11:05:39.349Z,93.06
2019-03-03T11:06:39.404Z,93.16
2019-03-03T11:07:39.324Z,92.65
2019-03-03T11:08:39.363Z,92.55
2019-03-03T11:09:39.419Z,92.44
2019-03-03T11:10:39.289Z,91.89
2019-03-03T11:11:39.305Z,91.27
2019-03-03T11:12:39.338Z,91.63
2019-03-03T11:13:39.278Z,91.52
2019-03-03T11:14:39.251Z,92.50
2019-03-03T11:15:39.235Z,91.73
2019-03-03T11:16:39.257Z,91.78
2019-03-03T11:17:39.215Z,92.55
2019-03-03T11:18:39.212Z,91.27
2019-03-03T11:19:39.194Z,91.17
2019-03-03T11:20:39.188Z,91.63
2019-03-03T11:21:39.170Z,90.97
2019-03-03T11:22:39.184Z,91.48
2019-03-03T11:23:39.161Z,91.89
2019-03-03T11:24:39.148Z,91.48
2019-03-03T11:25:39.231Z,90.86
2019-03-03T11:26:39.135Z,91.27
2019-03-03T11:27:39.150Z,92.60
2019-03-03T11:28:39.138Z,92.05
2019-03-03T11:29:39.103Z,90.82
2019-03-03T11:30:39.559Z,90.05
2019-03-03T11:31:39.096Z,90.72
2019-03-03T11:32:39.106Z,91.13
2019-03-03T11:33:39.067Z,91.44
2019-03-03T11:34:39.062Z,91.03
2019-03-03T11:35:39.021Z,90.52
2019-03-03T11:36:39.004Z,90.92
2019-03-03T11:37:39.016Z,89.80
2019-03-03T11:38:38.985Z,90.82
2019-03-03T11:39:39.044Z,90.41
2019-03-03T11:40:38.961Z,90.68
2019-03-03T11:41:38.964Z,91.13
2019-03-03T11:42:38.947Z,90.11
2019-03-03T11:43:38.960Z,88.94
2019-03-03T11:44:38.971Z,88.94
2019-03-03T11:45:38.937Z,89.61
2019-03-03T11:46:38.898Z,89.45
2019-03-03T11:47:38.886Z,89.45
2019-03-03T11:48:38.894Z,88.74
2019-03-03T11:49:38.993Z,88.74
2019-03-03T11:50:38.872Z,88.64
2019-03-03T11:51:38.845Z,88.53
2019-03-03T11:52:38.837Z,88.64
2019-03-03T11:53:38.885Z,88.90
2019-03-03T11:54:38.847Z,88.84
2019-03-03T11:55:38.856Z,89.56
2019-03-03T11:56:38.857Z,90.12
2019-03-03T11:57:38.823Z,88.84
2019-03-03T11:58:38.800Z,88.84
2019-03-03T11:59:38.802Z,89.20
2019-03-03T12:00:38.786Z,89.25
2019-03-03T12:01:38.827Z,88.79
2019-03-03T12:02:38.742Z,88.94
2019-03-03T12:03:38.830Z,89.15
2019-03-03T12:04:38.697Z,89.15
2019-03-03T12:05:38.694Z,90.06
2019-03-03T12:06:38.673Z,88.33
2019-03-03T12:07:38.673Z,88.84
2019-03-03T12:08:38.744Z,88.53
2019-03-03T12:09:38.670Z,88.53
2019-03-03T12:10:38.643Z,88.70
2019-03-03T12:11:38.646Z,89.04
2019-03-03T12:12:38.652Z,88.53
2019-03-03T12:13:38.590Z,87.82
2019-03-03T12:14:38.648Z,88.12
2019-03-03T12:15:38.613Z,87.61
2019-03-03T12:16:38.567Z,87.57
2019-03-03T12:17:38.620Z,87.47
2019-03-03T12:18:38.671Z,87.26
2019-03-03T12:19:38.555Z,87.77
2019-03-03T12:20:38.538Z,87.26
2019-03-03T12:21:38.617Z,87.47
2019-03-03T12:22:38.490Z,87.57
2019-03-03T12:23:38.486Z,87.37
2019-03-03T12:24:38.498Z,87.06
2019-03-03T12:25:38.507Z,86.55
2019-03-03T12:26:38.455Z,85.73
2019-03-03T12:27:38.449Z,85.28
2019-03-03T12:28:38.440Z,85.73
2019-03-03T12:29:38.455Z,85.42
2019-03-03T12:30:38.455Z,85.32
2019-03-03T12:31:38.428Z,85.42
2019-03-03T12:32:38.389Z,84.91
2019-03-03T12:33:38.381Z,85.02
2019-03-03T12:34:38.357Z,84.81
2019-03-03T12:35:38.348Z,85.38
2019-03-03T12:36:38.382Z,85.53
2019-03-03T12:37:38.349Z,85.59
2019-03-03T12:38:38.315Z,84.81
2019-03-03T12:39:38.341Z,84.16
2019-03-03T12:40:38.316Z,84.88
2019-03-03T12:41:38.289Z,84.71
2019-03-03T12:42:38.279Z,84.98
2019-03-03T12:43:38.266Z,84.88
2019-03-03T12:44:38.282Z,84.77
2019-03-03T12:45:38.341Z,84.98
2019-03-03T12:46:38.236Z,84.88
2019-03-03T12:47:38.221Z,85.02
2019-03-03T12:48:38.280Z,84.98
2019-03-03T12:49:38.188Z,85.08
2019-03-03T12:50:38.179Z,84.98
2019-03-03T12:51:38.175Z,84.77
2019-03-03T12:52:38.160Z,84.98